Time;durP1;ratioP1;P1;durP2;ratioP2;P2;SDS_P1;SDS_P2;PMS_P1;PMS_P2;Temp;Humidity;BMP_temperature;BMP_pressure;BME280_temperature;BME280_humidity;BME280_pressure;Samples;Min_cycle;Max_cycle;Signal;HPM_P1;HPM_P2
2022/06/02 00:02:05;;;;;;;6.47;5.03;;;;;;;9.98;66.22;101276.03;5057424;28;20032;-51
2022/06/02 00:05:10;;;;;;;6.90;5.90;;;;;;;10.04;66.58;101296.00;5056507;28;20520;-49
2022/06/02 00:07:56;;;;;;;6.05;4.47;;;;;;;10.00;66.07;101298.16;5048907;28;20041;-47
2022/06/02 00:10:36;;;;;;;5.32;4.82;;;;;;;9.98;66.02;101286.78;5074563;28;20072;-48
2022/06/02 00:13:20;;;;;;;4.32;3.92;;;;;;;9.84;66.00;101272.22;5056766;28;20550;-47
2022/06/02 00:15:52;;;;;;;4.85;4.38;;;;;;;9.98;65.75;101291.31;5074724;28;20092;-49
2022/06/02 00:18:44;;;;;;;5.40;4.90;;;;;;;9.91;66.49;101296.50;5074553;28;20025;-47
2022/06/02 00:21:40;;;;;;;7.25;4.72;;;;;;;9.92;65.68;101292.81;5060230;28;20067;-50
2022/06/02 00:24:14;;;;;;;;;;;;;;;9.86;66.93;101301.53;5073494;28;20056;-49
2022/06/02 00:26:58;;;;;;;3.58;3.25;;;;;;;9.78;66.09;101299.69;5094568;28;20352;-50
2022/06/02 00:29:35;;;;;;;3.92;3.53;;;;;;;9.75;66.43;101304.56;5076606;28;20075;-48
2022/06/02 00:32:25;;;;;;;4.28;3.60;;;;;;;9.70;66.30;101307.75;5094776;28;20035;-49
2022/06/02 00:35:07;;;;;;;5.50;3.80;;;;;;;9.65;66.60;101310.91;5094288;28;20020;-49
2022/06/02 00:37:47;;;;;;;5.20;3.60;;;;;;;9.62;66.87;101305.91;5093989;28;20027;-48
2022/06/02 00:40:14;;;;;;;11.00;3.80;;;;;;;9.63;66.58;101304.88;5093954;28;20039;-48
2022/06/02 00:43:20;;;;;;;5.15;4.30;;;;;;;9.66;67.56;101293.84;5094209;28;20142;-45
2022/06/02 00:45:51;;;;;;;7.28;3.85;;;;;;;9.60;67.15;101305.22;5067821;28;20155;-48
2022/06/02 00:48:37;;;;;;;4.40;4.00;;;;;;;9.53;67.17;101304.22;5094016;28;20032;-47
2022/06/02 00:51:06;;;;;;;5.72;4.07;;;;;;;9.45;67.68;101301.50;5093068;28;20108;-44
2022/06/02 00:53:41;;;;;;;7.22;4.65;;;;;;;9.46;67.62;101300.53;5075305;28;20035;-48
2022/06/02 00:59:43;;;;;;;5.65;4.03;;;;;;;9.49;67.16;101310.94;5078667;28;20495;-48
2022/06/02 01:02:09;;;;;;;5.78;3.50;;;;;;;9.33;67.29;101290.28;5078654;28;20032;-48
2022/06/02 01:04:40;;;;;;;4.15;3.78;;;;;;;9.43;67.17;101306.19;5075653;28;20085;-48
2022/06/02 01:07:26;;;;;;;3.50;3.10;;;;;;;9.25;67.32;101292.97;5076150;28;20043;-48
2022/06/02 01:10:32;;;;;;;4.13;3.80;;;;;;;9.26;67.78;101302.66;5093878;28;20456;-46
2022/06/02 01:13:16;;;;;;;3.88;3.58;;;;;;;9.15;67.93;101297.59;5062321;28;20048;-46
2022/06/02 01:16:08;;;;;;;3.20;2.90;;;;;;;9.11;68.00;101299.78;5094756;28;20112;-45
2022/06/02 01:18:54;;;;;;;3.30;3.00;;;;;;;9.08;68.07;101300.94;5076329;28;20114;-46
2022/06/02 01:21:58;;;;;;;5.43;3.50;;;;;;;9.00;68.58;101306.28;5094893;28;20027;-46
2022/06/02 01:25:03;;;;;;;4.13;3.20;;;;;;;8.97;68.53;101311.09;5048138;28;20210;-46
2022/06/02 01:28:09;;;;;;;3.72;3.38;;;;;;;8.94;69.06;101311.47;5062273;28;20035;-46
2022/06/02 01:31:01;;;;;;;3.95;3.65;;;;;;;8.94;68.63;101314.13;5067490;28;20058;-46
2022/06/02 01:33:44;;;;;;;3.53;3.10;;;;;;;8.85;68.68;101303.38;5061790;28;20036;-46
2022/06/02 01:36:41;;;;;;;3.13;2.92;;;;;;;8.87;68.93;101308.56;5094991;28;20031;-49
2022/06/02 01:39:41;;;;;;;3.30;3.03;;;;;;;8.85;68.86;101307.91;5065170;28;20494;-48
2022/06/02 01:42:47;;;;;;;3.72;3.42;;;;;;;8.79;69.53;101309.38;5065536;28;20020;-47
2022/06/02 01:45:27;;;;;;;3.70;3.40;;;;;;;8.85;68.86;101316.75;5069277;28;20032;-48
2022/06/02 01:48:22;;;;;;;5.93;4.82;;;;;;;8.69;69.81;101304.16;5096399;28;20321;-45
2022/06/02 01:51:26;;;;;;;6.07;5.57;;;;;;;8.58;70.78;101317.84;5081077;28;20024;-46
2022/06/02 01:54:11;;;;;;;4.55;4.10;;;;;;;8.51;70.15;101303.41;5084239;28;20079;-46
2022/06/02 01:56:54;;;;;;;3.90;3.60;;;;;;;8.59;69.87;101308.78;5061882;28;20046;-46
2022/06/02 01:59:48;;;;;;;5.00;3.85;;;;;;;8.55;70.12;101310.09;5094021;28;20032;-47
2022/06/02 02:02:41;;;;;;;4.55;4.15;;;;;;;8.50;70.00;101317.78;5081015;28;20032;-47
2022/06/02 02:05:32;;;;;;;4.43;3.53;;;;;;;8.39;70.24;101294.75;5081065;28;20071;-50
2022/06/02 02:08:13;;;;;;;4.63;4.13;;;;;;;8.32;70.06;101297.25;5080562;28;20027;-50
2022/06/02 02:11:10;;;;;;;4.13;3.83;;;;;;;8.40;70.05;101317.84;5076375;28;20035;-46
2022/06/02 02:14:15;;;;;;;5.55;4.45;;;;;;;8.36;70.42;101312.97;5079805;28;20028;-46
2022/06/02 02:17:09;;;;;;;5.90;4.13;;;;;;;8.34;70.65;101311.31;5068639;28;20040;-47
2022/06/02 02:20:01;;;;;;;5.10;4.65;;;;;;;8.40;69.77;101309.81;5081156;28;20035;-50
2022/06/02 02:22:53;;;;;;;5.78;4.30;;;;;;;8.44;69.89;101303.19;5079374;28;20040;-45
2022/06/02 02:25:34;;;;;;;4.60;4.13;;;;;;;8.40;70.53;101301.78;5078045;28;20039;-48
2022/06/02 02:28:13;;;;;;;4.80;4.40;;;;;;;8.38;69.52;101303.78;5094619;28;20038;-46
2022/06/02 02:31:06;;;;;;;5.18;4.70;;;;;;;8.37;70.22;101302.09;5079023;28;20111;-46
2022/06/02 02:34:00;;;;;;;5.80;5.30;;;;;;;8.35;70.32;101312.13;5048871;28;20032;-46
2022/06/02 02:36:36;;;;;;;5.95;4.68;;;;;;;8.27;70.11;101315.59;5065763;28;20040;-46
2022/06/02 02:39:41;;;;;;;4.40;4.03;;;;;;;8.12;70.53;101296.59;5078542;28;20118;-46
2022/06/02 02:42:51;;;;;;;5.35;4.82;;;;;;;8.18;70.45;101316.53;5081479;28;20099;-47
2022/06/02 02:45:46;;;;;;;3.70;3.40;;;;;;;8.14;70.69;101317.84;5064725;28;20035;-46
2022/06/02 02:48:32;;;;;;;;;;;;;;;8.11;71.77;101320.84;5066759;28;20068;-46
2022/06/02 02:51:13;;;;;;;6.13;4.55;;;;;;;7.99;70.70;101308.72;5081088;28;19912;-46
2022/06/02 02:53:47;;;;;;;5.10;4.70;;;;;;;8.04;70.79;101317.09;5078003;28;20024;-46
2022/06/02 02:56:23;;;;;;;5.13;4.72;;;;;;;7.89;70.68;101295.44;5096238;28;20027;-46
2022/06/02 02:58:58;;;;;;;5.22;3.80;;;;;;;7.88;70.41;101294.59;5096031;28;20153;-46
2022/06/02 03:01:40;;;;;;;4.93;4.53;;;;;;;7.95;70.84;101306.34;5096051;28;20031;-45
2022/06/02 03:04:34;;;;;;;5.05;4.60;;;;;;;7.98;70.69;101323.91;5060681;28;20028;-46
2022/06/02 03:07:01;;;;;;;4.20;3.80;;;;;;;7.96;70.86;101309.84;5081546;28;20541;-45
2022/06/02 03:09:41;;;;;;;4.75;4.25;;;;;;;7.89;71.29;101306.97;5095461;28;20388;-47
2022/06/02 03:12:28;;;;;;;5.03;3.72;;;;;;;7.88;70.99;101310.63;5095226;28;20043;-49
2022/06/02 03:15:12;;;;;;;3.90;3.60;;;;;;;7.73;71.26;101293.47;5095726;28;20039;-48
2022/06/02 03:17:50;;;;;;;4.32;4.03;;;;;;;7.68;71.45;101291.25;5077313;28;20024;-47
2022/06/02 03:20:36;;;;;;;4.95;4.55;;;;;;;7.82;71.41;101305.06;5095964;28;20035;-47
2022/06/02 03:23:33;;;;;;;5.53;4.82;;;;;;;7.87;71.08;101300.09;5077432;28;20052;-47
2022/06/02 03:26:06;;;;;;;3.88;3.58;;;;;;;7.87;71.28;101300.94;5082215;28;20106;-52
2022/06/02 03:28:45;;;;;;;6.22;5.28;;;;;;;7.69;70.84;101284.94;5095654;28;20043;-48
2022/06/02 03:31:28;;;;;;;4.97;4.10;;;;;;;7.73;71.52;101296.97;5095648;28;20038;-52
2022/06/02 03:34:28;;;;;;;4.93;4.50;;;;;;;7.71;71.85;101298.16;5095242;28;20031;-50
2022/06/02 03:37:13;;;;;;;5.70;5.20;;;;;;;7.73;71.83;101301.50;5060271;28;20035;-47
2022/06/02 03:40:10;;;;;;;5.93;4.93;;;;;;;7.78;71.37;101309.03;5094149;28;20115;-49
2022/06/02 03:42:49;;;;;;;4.32;4.03;;;;;;;7.68;71.64;101296.59;5064666;28;20036;-48
2022/06/02 03:45:54;;;;;;;6.32;5.55;;;;;;;7.56;71.58;101290.66;5061276;28;20035;-48
2022/06/02 03:48:39;;;;;;;4.50;4.10;;;;;;;7.50;71.77;101293.97;5068555;28;20032;-48
2022/06/02 03:51:44;;;;;;;5.03;4.53;;;;;;;7.54;72.00;101307.81;5077775;28;20462;-47
2022/06/02 03:54:50;;;;;;;5.43;4.93;;;;;;;7.50;71.89;101303.78;5068464;28;20103;-47
2022/06/02 03:57:43;;;;;;;4.70;4.20;;;;;;;7.36;72.07;101281.94;5051398;28;20034;-49
2022/06/02 04:00:19;;;;;;;6.45;5.28;;;;;;;7.48;71.90;101306.59;5079677;28;20032;-48
2022/06/02 04:02:52;;;;;;;5.13;4.63;;;;;;;7.43;71.56;101300.91;5077471;28;20039;-48
2022/06/02 04:05:48;;;;;;;5.28;4.88;;;;;;;7.35;72.42;101292.78;5094430;28;20032;-48
2022/06/02 04:08:42;;;;;;;4.80;4.43;;;;;;;7.43;72.34;101310.72;5064799;28;20119;-51
2022/06/02 04:11:29;;;;;;;7.80;6.43;;;;;;;7.37;72.65;101314.84;5080576;28;20463;-49
2022/06/02 04:14:11;;;;;;;6.43;5.82;;;;;;;7.33;72.97;101314.31;5076142;28;20036;-47
2022/06/02 04:17:07;;;;;;;5.05;4.55;;;;;;;7.39;73.27;101315.53;5094900;28;20024;-47
2022/06/02 04:23:01;;;;;;;8.10;7.40;;;;;;;7.38;73.39;101319.22;5065301;28;20027;-48
2022/06/02 04:25:54;;;;;;;6.38;5.75;;;;;;;7.14;73.16;101274.38;5059025;28;20381;-47
2022/06/02 04:28:48;;;;;;;6.78;5.60;;;;;;;7.39;72.85;101310.19;5043153;28;20036;-47
2022/06/02 04:31:32;;;;;;;4.22;3.92;;;;;;;7.43;73.10;101322.28;5045027;28;20438;-47
2022/06/02 04:34:14;;;;;;;5.10;4.60;;;;;;;7.38;72.73;101307.69;5041690;28;20032;-49
2022/06/02 04:36:51;;;;;;;7.47;5.40;;;;;;;7.46;72.83;101313.94;5039798;28;20054;-47
2022/06/02 04:39:42;;;;;;;5.45;4.95;;;;;;;7.51;72.78;101322.34;5058075;28;20024;-49
2022/06/02 04:42:33;;;;;;;6.47;5.45;;;;;;;7.57;73.53;101312.88;5059849;28;20033;-50
2022/06/02 04:45:28;;;;;;;6.05;5.55;;;;;;;7.74;72.88;101325.41;5058580;28;20044;-47
2022/06/02 04:48:33;;;;;;;5.63;5.07;;;;;;;7.66;73.42;101329.84;5059943;28;20036;-48
2022/06/02 04:51:16;;;;;;;7.93;7.13;;;;;;;7.61;73.01;101313.41;5048396;28;20025;-49
2022/06/02 04:53:57;;;;;;;6.97;6.47;;;;;;;7.60;72.85;101307.22;5073901;28;20112;-50
2022/06/02 04:56:36;;;;;;;6.97;6.38;;;;;;;7.76;73.55;101327.91;5073586;28;20036;-55
2022/06/02 04:59:28;;;;;;;9.02;5.72;;;;;;;7.79;73.75;101329.47;5055903;28;20044;-49
2022/06/02 05:02:20;;;;;;;5.72;5.22;;;;;;;7.76;73.35;101322.56;5060037;28;20366;-47
2022/06/02 05:05:06;;;;;;;7.80;6.10;;;;;;;7.84;73.67;101330.66;5055932;28;20029;-47
2022/06/02 05:08:04;;;;;;;6.95;6.35;;;;;;;7.88;73.47;101334.72;5073626;28;20036;-49
2022/06/02 05:10:57;;;;;;;5.05;4.65;;;;;;;7.95;73.74;101334.94;5044626;28;20032;-49
2022/06/02 05:13:48;;;;;;;6.10;5.60;;;;;;;7.67;73.49;101286.06;5059444;28;20473;-48
2022/06/02 05:16:49;;;;;;;6.93;6.22;;;;;;;8.05;73.70;101337.53;5060394;28;20477;-47
2022/06/02 05:19:32;;;;;;;6.00;5.50;;;;;;;8.07;73.45;101335.53;5055014;28;20090;-47
2022/06/02 05:22:19;;;;;;;6.68;5.97;;;;;;;8.17;73.70;101335.44;5056322;28;20060;-48
2022/06/02 05:25:24;;;;;;;6.65;6.15;;;;;;;8.23;73.72;101335.66;5072908;28;20052;-48
2022/06/02 05:28:24;;;;;;;7.00;6.43;;;;;;;8.27;73.24;101346.88;5047166;28;20043;-48
2022/06/02 05:31:26;;;;;;;6.35;5.50;;;;;;;8.28;73.44;101337.84;5058025;28;20039;-47
2022/06/02 05:34:32;;;;;;;5.90;5.38;;;;;;;8.37;73.50;101346.78;5073056;28;20040;-48
2022/06/02 05:37:06;;;;;;;;;;;;;;;8.42;73.82;101339.97;5047376;28;20035;-49
2022/06/02 05:40:02;;;;;;;5.45;4.93;;;;;;;8.43;73.87;101320.25;5038130;28;19908;-48
2022/06/02 05:42:36;;;;;;;;;;;;;;;8.53;73.89;101336.19;5059850;28;20385;-48
2022/06/02 05:45:17;;;;;;;5.07;4.68;;;;;;;8.45;73.15;101312.03;5072678;28;19915;-48
2022/06/02 05:48:02;;;;;;;8.23;7.43;;;;;;;8.62;73.46;101335.25;5072984;28;20032;-47
2022/06/02 05:50:56;;;;;;;5.93;5.28;;;;;;;8.70;73.19;101343.31;5056832;28;20550;-47
2022/06/02 05:53:48;;;;;;;7.97;6.55;;;;;;;8.63;72.97;101326.19;5059153;28;20032;-49
2022/06/02 05:56:32;;;;;;;8.00;6.72;;;;;;;8.87;73.58;101352.25;5057419;28;20559;-48
2022/06/02 05:59:26;;;;;;;9.27;8.38;;;;;;;8.98;75.58;101356.50;5072510;28;20056;-51
2022/06/02 06:02:30;;;;;;;9.02;7.25;;;;;;;9.10;77.83;101352.53;5058565;28;20028;-47
2022/06/02 06:05:27;;;;;;;10.23;8.60;;;;;;;9.34;80.18;101350.09;5064885;28;20407;-46
2022/06/02 06:08:23;;;;;;;11.05;7.65;;;;;;;9.49;80.18;101351.97;5061374;28;20496;-49
2022/06/02 06:11:06;;;;;;;10.23;9.32;;;;;;;9.64;81.11;101356.69;5046928;28;20082;-46
2022/06/02 06:14:12;;;;;;;16.38;8.82;;;;;;;9.79;82.07;101354.19;5076527;28;20457;-46
2022/06/02 06:16:44;;;;;;;8.38;7.65;;;;;;;9.91;81.32;101362.75;5050907;28;20035;-46
2022/06/02 06:19:38;;;;;;;14.23;9.90;;;;;;;9.92;82.28;101349.16;5059367;28;20036;-47
2022/06/02 06:22:43;;;;;;;13.05;9.50;;;;;;;10.12;81.33;101376.47;5047640;28;20047;-46
2022/06/02 06:25:42;;;;;;;8.57;7.75;;;;;;;10.18;81.70;101375.84;5050520;28;20038;-50
2022/06/02 06:28:27;;;;;;;10.23;9.13;;;;;;;10.21;80.80;101364.75;5048552;28;20036;-47
2022/06/02 06:31:01;;;;;;;9.75;8.88;;;;;;;10.34;80.41;101376.84;5077310;28;20037;-47
2022/06/02 06:33:48;;;;;;;9.15;8.32;;;;;;;10.45;81.53;101368.44;5077231;28;20032;-47
2022/06/02 06:36:40;;;;;;;12.10;8.98;;;;;;;10.36;80.83;101346.13;5077733;28;20033;-48
2022/06/02 06:39:34;;;;;;;9.43;8.48;;;;;;;10.61;80.93;101379.16;5062640;28;20460;-46
2022/06/02 06:42:28;;;;;;;8.57;7.68;;;;;;;10.67;80.04;101383.00;5061652;28;20373;-48
2022/06/02 06:45:21;;;;;;;8.93;8.02;;;;;;;10.73;80.19;101387.69;5060988;28;20044;-48
2022/06/02 06:47:53;;;;;;;11.23;10.07;;;;;;;10.85;80.90;101388.19;5043792;28;20032;-46
2022/06/02 06:50:28;;;;;;;10.25;9.27;;;;;;;10.92;80.09;101383.78;5074677;28;20073;-47
2022/06/02 06:53:22;;;;;;;11.55;10.10;;;;;;;10.93;81.10;101363.13;5062494;28;20033;-49
2022/06/02 06:55:59;;;;;;;13.23;9.68;;;;;;;11.11;80.47;101381.72;5063388;28;20473;-47
2022/06/02 06:58:40;;;;;;;15.90;10.30;;;;;;;11.21;80.96;101382.31;5077950;28;20040;-50
2022/06/02 07:01:32;;;;;;;10.13;9.07;;;;;;;11.27;79.38;101370.03;5077476;28;20029;-48
2022/06/02 07:04:14;;;;;;;13.40;8.70;;;;;;;11.41;79.50;101388.94;5061407;28;20370;-46
2022/06/02 07:06:59;;;;;;;8.45;7.65;;;;;;;11.47;78.96;101383.88;5075988;28;20032;-49
2022/06/02 07:09:37;;;;;;;;;;;;;;;11.57;78.71;101387.16;5076130;28;20155;-48
2022/06/02 07:15:41;;;;;;;8.77;7.70;;;;;;;11.78;76.76;101379.28;5060827;28;20036;-46
2022/06/02 07:18:35;;;;;;;9.25;7.45;;;;;;;11.98;76.59;101385.06;5062878;28;20167;-46
2022/06/02 07:21:25;;;;;;;7.75;7.07;;;;;;;12.08;75.39;101386.69;5044886;28;20037;-47
2022/06/02 07:24:09;;;;;;;7.70;6.80;;;;;;;12.09;74.40;101382.97;5074317;28;20048;-49
2022/06/02 07:27:01;;;;;;;12.05;6.68;;;;;;;12.17;74.12;101374.81;5097722;28;20507;-48
2022/06/02 07:29:54;;;;;;;6.80;6.20;;;;;;;12.28;73.79;101371.69;5095606;28;20032;-49
2022/06/02 07:32:48;;;;;;;7.50;6.40;;;;;;;12.22;74.35;101358.97;5064347;28;20032;-47
2022/06/02 07:35:44;;;;;;;7.20;6.53;;;;;;;12.49;74.69;101376.38;5096332;28;20024;-48
2022/06/02 07:38:28;;;;;;;7.88;7.05;;;;;;;12.57;73.43;101357.44;5082897;28;20503;-47
2022/06/02 07:41:34;;;;;;;7.93;7.13;;;;;;;12.78;72.75;101367.47;5077561;28;20165;-46
2022/06/02 07:44:18;;;;;;;8.85;6.88;;;;;;;12.86;71.02;101376.50;5069065;28;20110;-46
2022/06/02 07:47:19;;;;;;;8.40;6.70;;;;;;;12.93;70.13;101372.03;5097218;28;20028;-47
2022/06/02 07:50:09;;;;;;;7.65;5.68;;;;;;;13.03;69.35;101371.72;5066987;28;20036;-47
2022/06/02 07:52:43;;;;;;;4.93;4.43;;;;;;;13.12;68.65;101367.91;5082527;28;20032;-47
2022/06/02 07:55:27;;;;;;;5.78;4.97;;;;;;;13.17;66.33;101360.94;5081319;28;20024;-47
2022/06/02 07:58:20;;;;;;;5.25;4.75;;;;;;;13.28;67.13;101370.41;5098326;28;20028;-48
2022/06/02 08:01:11;;;;;;;6.70;4.05;;;;;;;13.34;66.86;101358.88;5077834;28;20028;-48
2022/06/02 08:03:57;;;;;;;5.00;4.43;;;;;;;13.50;67.73;101370.47;5080775;28;20113;-46
2022/06/02 08:06:45;;;;;;;4.47;3.30;;;;;;;13.63;66.57;101370.63;5059860;28;20036;-46
2022/06/02 08:09:46;;;;;;;4.03;3.70;;;;;;;13.98;62.52;101370.72;5078045;28;20058;-47
2022/06/02 08:12:35;;;;;;;3.60;3.30;;;;;;;14.11;60.86;101368.19;5079474;28;20031;-47
2022/06/02 08:15:17;;;;;;;3.92;3.53;;;;;;;14.46;61.73;101367.38;5076223;28;20453;-50
2022/06/02 08:18:01;;;;;;;3.28;2.70;;;;;;;15.43;57.91;101366.47;5094660;28;20071;-48
2022/06/02 08:20:53;;;;;;;2.30;2.10;;;;;;;16.44;50.03;101354.69;5094392;28;20107;-47
2022/06/02 08:23:45;;;;;;;2.33;2.13;;;;;;;16.96;48.94;101357.53;5073535;28;20048;-47
2022/06/02 08:26:19;;;;;;;3.08;2.88;;;;;;;17.63;50.66;101340.91;5056007;28;20124;-48
2022/06/02 08:29:14;;;;;;;3.17;2.42;;;;;;;18.01;48.21;101352.78;5074665;28;20090;-47
2022/06/02 08:32:20;;;;;;;1.55;1.45;;;;;;;18.80;45.59;101328.59;5060363;28;20036;-50
2022/06/02 08:35:10;;;;;;;2.50;2.33;;;;;;;19.39;42.24;101345.25;5047758;28;20078;-47
2022/06/02 08:38:03;;;;;;;4.22;1.40;;;;;;;20.02;36.97;101343.91;5073645;28;20465;-48
2022/06/02 08:41:02;;;;;;;3.30;2.05;;;;;;;20.55;41.18;101342.16;5043007;28;20553;-48
2022/06/02 08:43:52;;;;;;;1.30;1.10;;;;;;;21.33;38.77;101329.06;5061098;28;20063;-47
2022/06/02 08:46:58;;;;;;;2.28;1.50;;;;;;;21.91;39.59;101343.50;5055733;28;20092;-48
2022/06/02 08:50:09;;;;;;;2.65;1.90;;;;;;;22.37;34.85;101339.59;5041879;28;20033;-47
2022/06/02 08:53:15;;;;;;;1.88;1.30;;;;;;;23.14;32.95;101342.56;5042666;28;20135;-49
2022/06/02 08:56:21;;;;;;;3.25;1.50;;;;;;;22.23;33.20;101343.72;5047700;28;20384;-49
2022/06/02 08:59:29;;;;;;;1.90;1.60;;;;;;;20.04;36.01;101341.78;5047558;28;20447;-48
2022/06/02 09:02:15;;;;;;;3.42;1.65;;;;;;;21.91;37.62;101335.28;5048599;28;20036;-48
2022/06/02 09:05:21;;;;;;;3.65;2.40;;;;;;;19.95;37.90;101344.03;5073218;28;20028;-48
2022/06/02 09:08:17;;;;;;;3.13;2.17;;;;;;;18.93;40.68;101355.69;5047041;28;20055;-47
2022/06/02 09:11:13;;;;;;;3.85;2.17;;;;;;;18.58;41.08;101356.25;5055778;28;20086;-47
2022/06/02 09:14:05;;;;;;;2.05;1.95;;;;;;;20.65;41.39;101340.53;5042668;28;20131;-47
2022/06/02 09:17:10;;;;;;;2.80;2.05;;;;;;;21.61;36.93;101347.38;5077027;28;20036;-48
2022/06/02 09:19:55;;;;;;;;;;;;;;;20.86;37.61;101354.63;5053128;28;20064;-49
2022/06/02 09:22:33;;;;;;;5.18;1.80;;;;;;;22.29;36.50;101340.03;5061671;28;19954;-48
2022/06/02 09:25:21;;;;;;;2.15;1.90;;;;;;;24.00;35.32;101346.47;5074194;28;20049;-48
2022/06/02 09:28:21;;;;;;;1.95;1.85;;;;;;;24.63;31.30;101343.91;5073586;28;20036;-48
2022/06/02 09:31:05;;;;;;;2.00;1.80;;;;;;;25.17;32.16;101346.31;5060562;28;20029;-48
2022/06/02 09:34:11;;;;;;;4.10;2.20;;;;;;;24.87;29.73;101347.00;5073052;28;20060;-48
2022/06/02 09:36:59;;;;;;;2.13;2.00;;;;;;;25.31;28.35;101341.16;5046909;28;20078;-49
2022/06/02 09:39:44;;;;;;;2.13;1.65;;;;;;;23.09;32.27;101337.84;5073142;28;20490;-48
2022/06/02 09:42:50;;;;;;;1.60;1.50;;;;;;;21.71;36.66;101344.81;5073564;28;20035;-49
2022/06/02 09:45:36;;;;;;;2.88;1.70;;;;;;;20.67;37.36;101340.25;5048092;28;20064;-47
2022/06/02 09:48:23;;;;;;;3.58;1.65;;;;;;;20.16;37.79;101342.63;5074446;28;20089;-47
2022/06/02 09:51:03;;;;;;;2.22;1.42;;;;;;;21.01;38.52;101341.28;5056018;28;20033;-49
2022/06/02 09:54:05;;;;;;;2.30;2.10;;;;;;;21.49;35.53;101328.31;5074363;28;20246;-47
2022/06/02 09:57:55;;;;;;;1.60;1.42;;;;;;;21.29;36.13;101342.38;5027947;28;20032;-47
2022/06/02 10:00:11;;;;;;;2.47;1.90;;;;;;;20.64;38.37;101341.59;5047035;28;20043;-50
2022/06/02 10:03:17;;;;;;;2.10;1.55;;;;;;;20.22;38.76;101344.41;5074105;28;20021;-48
2022/06/02 10:06:06;;;;;;;1.90;1.80;;;;;;;19.96;39.85;101320.31;5047737;28;20031;-48
2022/06/02 10:08:45;;;;;;;2.50;1.67;;;;;;;20.89;38.68;101340.47;5073597;28;20081;-50
2022/06/02 10:11:51;;;;;;;3.42;1.70;;;;;;;23.74;33.02;101329.75;5073992;28;20041;-47
2022/06/02 10:14:33;;;;;;;1.85;1.50;;;;;;;23.13;33.42;101310.78;5031017;28;20422;-49
2022/06/02 10:17:30;;;;;;;1.75;1.65;;;;;;;22.69;32.82;101332.66;5057339;28;20029;-50
2022/06/02 10:20:35;;;;;;;1.67;1.58;;;;;;;21.67;35.55;101327.22;5043386;28;20044;-48
2022/06/02 10:23:34;;;;;;;1.63;1.40;;;;;;;21.49;35.74;101324.72;5047273;28;20106;-48
2022/06/02 10:26:39;;;;;;;1.95;1.55;;;;;;;21.22;35.49;101325.28;5043180;28;20527;-48
2022/06/02 10:29:40;;;;;;;1.65;1.35;;;;;;;20.57;37.63;101323.66;5047436;28;20044;-48
2022/06/02 10:32:28;;;;;;;1.63;1.30;;;;;;;20.41;36.48;101308.81;5059671;28;20032;-48
2022/06/02 10:35:34;;;;;;;6.22;1.23;;;;;;;20.37;38.39;101324.84;5056856;28;20025;-48
2022/06/02 10:38:11;;;;;;;;;;;;;;;20.12;37.55;101325.09;5048396;28;20086;-48
2022/06/02 10:40:53;;;;;;;3.20;1.23;;;;;;;20.02;39.15;101322.94;5054469;28;19920;-49
2022/06/02 10:43:47;;;;;;;2.40;1.52;;;;;;;20.01;37.77;101318.56;5039344;28;20024;-48
2022/06/02 10:46:53;;;;;;;1.35;1.25;;;;;;;20.08;38.66;101318.44;5072706;28;20094;-49
2022/06/02 10:49:26;;;;;;;2.33;1.90;;;;;;;20.40;37.96;101301.72;5049036;28;20035;-47
2022/06/02 10:52:31;;;;;;;4.20;2.00;;;;;;;22.26;35.67;101312.34;5058693;28;20568;-49
2022/06/02 10:55:28;;;;;;;1.25;1.15;;;;;;;24.34;33.92;101294.81;5050239;28;20464;-49
2022/06/02 10:58:33;;;;;;;1.77;1.60;;;;;;;24.84;32.54;101306.34;5041773;28;20024;-49
2022/06/02 11:01:39;;;;;;;2.42;1.45;;;;;;;26.14;28.55;101292.50;5044418;28;20020;-49
2022/06/02 11:04:44;;;;;;;1.30;1.20;;;;;;;27.06;27.55;101294.13;5049809;28;20036;-49
2022/06/02 11:07:45;;;;;;;2.60;1.70;;;;;;;26.83;27.04;101290.94;5050950;28;20120;-49
2022/06/02 11:10:39;;;;;;;2.00;1.80;;;;;;;27.22;26.40;101293.75;5047365;28;20107;-53
2022/06/02 11:13:39;;;;;;;2.80;1.63;;;;;;;28.28;25.43;101284.06;5075893;28;20036;-48
2022/06/02 11:16:35;;;;;;;1.80;1.67;;;;;;;27.86;25.55;101293.84;5063877;28;20036;-50
2022/06/02 11:19:33;;;;;;;1.88;1.77;;;;;;;26.23;26.60;101294.41;5061925;28;20147;-49
2022/06/02 11:22:38;;;;;;;3.22;2.00;;;;;;;24.37;28.92;101297.03;5062045;28;20433;-48
2022/06/02 11:25:44;;;;;;;1.92;1.67;;;;;;;23.78;30.16;101292.47;5049173;28;20563;-48
2022/06/02 11:28:39;;;;;;;1.48;1.38;;;;;;;23.68;30.18;101287.75;5048917;28;20032;-48
2022/06/02 11:31:25;;;;;;;2.22;1.77;;;;;;;24.42;29.85;101282.50;5062406;28;20032;-47
2022/06/02 11:34:31;;;;;;;2.17;1.67;;;;;;;24.92;29.18;101284.69;5075279;28;20033;-46
2022/06/02 11:37:31;;;;;;;1.50;1.40;;;;;;;25.34;26.80;101257.31;5049511;28;20033;-46
2022/06/02 11:40:37;;;;;;;1.25;1.15;;;;;;;27.90;23.89;101274.81;5060672;28;20157;-48
2022/06/02 11:43:14;;;;;;;1.45;1.20;;;;;;;27.42;24.96;101283.72;5049027;28;20036;-48
2022/06/02 11:46:10;;;;;;;2.25;1.20;;;;;;;27.44;25.02;101269.66;5057244;28;20099;-48
2022/06/02 11:49:05;;;;;;;2.60;1.15;;;;;;;28.92;23.63;101267.28;5027855;28;20036;-49
2022/06/02 11:52:11;;;;;;;1.08;1.00;;;;;;;30.21;20.44;101257.69;5043911;28;20029;-47
2022/06/02 11:54:56;;;;;;;1.30;1.20;;;;;;;29.84;22.38;101251.19;5049184;28;20116;-48
2022/06/02 11:57:53;;;;;;;2.63;1.00;;;;;;;29.99;21.78;101250.91;5075211;28;20036;-48
2022/06/02 12:00:50;;;;;;;2.15;1.00;;;;;;;30.27;19.58;101237.91;5058919;28;20033;-49
2022/06/02 12:03:56;;;;;;;1.95;1.08;;;;;;;29.67;21.66;101248.97;5061808;28;20028;-48
2022/06/02 12:06:52;;;;;;;2.47;1.58;;;;;;;29.77;21.12;101234.97;5048757;28;20041;-48
2022/06/02 12:09:57;;;;;;;2.97;1.77;;;;;;;30.51;21.58;101245.19;5059732;28;20424;-51
2022/06/02 12:12:46;;;;;;;1.90;1.40;;;;;;;30.95;21.83;101226.25;5048532;28;20035;-49
2022/06/02 12:15:34;;;;;;;1.50;1.10;;;;;;;31.16;22.10;101229.34;5074874;28;20039;-50
2022/06/02 12:18:16;;;;;;;1.38;1.30;;;;;;;28.94;21.85;101231.84;5074515;28;20028;-49
2022/06/02 12:21:12;;;;;;;2.58;1.67;;;;;;;28.68;22.54;101192.69;5075452;28;20031;-48
2022/06/02 12:24:05;;;;;;;3.30;1.50;;;;;;;28.38;22.92;101227.88;5071782;28;20067;-54
2022/06/02 12:26:48;;;;;;;4.85;1.70;;;;;;;27.41;23.66;101222.22;5085877;28;20035;-49
2022/06/02 12:29:54;;;;;;;4.20;1.70;;;;;;;25.99;25.59;101238.31;5079717;28;20056;-48
2022/06/02 12:32:44;;;;;;;1.27;1.10;;;;;;;25.96;27.17;101220.41;5070923;28;20043;-48
2022/06/02 12:35:38;;;;;;;1.70;1.50;;;;;;;26.00;28.19;101223.44;5077537;28;20024;-48
2022/06/02 12:38:39;;;;;;;2.17;1.58;;;;;;;25.37;26.98;101221.84;5063308;28;20076;-50
2022/06/02 12:41:24;;;;;;;1.67;1.58;;;;;;;25.24;28.03;101222.34;5081531;28;20099;-49
2022/06/02 12:44:30;;;;;;;1.73;1.63;;;;;;;25.25;28.43;101230.34;5094097;28;20462;-47
2022/06/02 12:47:27;;;;;;;3.42;1.58;;;;;;;24.89;27.80;101232.19;5068541;28;20089;-48
2022/06/02 12:50:32;;;;;;;2.70;1.52;;;;;;;24.62;27.58;101221.38;5062378;28;20039;-49
2022/06/02 12:53:37;;;;;;;1.88;1.77;;;;;;;24.98;27.62;101232.47;5062378;28;20055;-51
2022/06/02 12:56:43;;;;;;;2.05;1.85;;;;;;;27.07;27.31;101224.91;5067984;28;20098;-50
2022/06/02 12:59:38;;;;;;;1.50;1.40;;;;;;;26.40;26.93;101216.97;5067283;28;20365;-49
2022/06/02 13:02:16;;;;;;;1.80;1.70;;;;;;;25.22;28.35;101219.88;5095218;28;20491;-49
2022/06/02 13:05:18;;;;;;;2.35;1.90;;;;;;;24.27;28.80;101225.59;5076554;28;20027;-49
2022/06/02 13:08:23;;;;;;;1.35;1.25;;;;;;;24.04;29.29;101216.69;5082042;28;20074;-48
2022/06/02 13:11:09;;;;;;;2.00;1.88;;;;;;;24.17;30.12;101220.06;5065211;28;20063;-48
2022/06/02 13:14:06;;;;;;;3.85;1.90;;;;;;;23.89;30.51;101217.41;5076219;28;20523;-50
2022/06/02 13:17:04;;;;;;;2.10;1.73;;;;;;;24.28;30.42;101214.34;5082201;28;20472;-48
2022/06/02 13:19:52;;;;;;;3.28;1.98;;;;;;;23.83;30.09;101217.63;5081092;28;20032;-48
2022/06/02 13:22:53;;;;;;;1.58;1.42;;;;;;;24.00;29.75;101222.97;5076131;28;20024;-48
2022/06/02 13:25:49;;;;;;;2.88;1.48;;;;;;;25.90;29.00;101205.00;5061490;28;20032;-48
2022/06/02 13:28:54;;;;;;;2.38;1.83;;;;;;;27.07;27.53;101210.31;5060902;28;20040;-50
2022/06/02 13:31:53;;;;;;;2.75;2.15;;;;;;;27.30;25.88;101192.22;5048032;28;20040;-48